createdAt,value
2018-07-05T00:00:56.445Z,21.30
2018-07-05T01:25:54.650Z,21.10
2018-07-05T01:28:36.781Z,20.20
2018-07-05T01:31:19.337Z,20.30
2018-07-05T01:34:02.950Z,20.40
2018-07-05T01:36:45.740Z,20.40
2018-07-05T01:39:34.328Z,20.40
2018-07-05T01:42:15.115Z,20.40
2018-07-05T01:45:09.483Z,20.40
2018-07-05T01:47:52.933Z,20.50
2018-07-05T01:50:34.736Z,20.50
2018-07-05T01:53:16.944Z,20.50
2018-07-05T01:56:01.016Z,20.50
2018-07-05T02:01:17.920Z,20.40
2018-07-05T02:04:00.750Z,20.40
2018-07-05T02:06:42.166Z,20.40
2018-07-05T02:09:25.811Z,20.40
2018-07-05T02:12:08.421Z,20.40
2018-07-05T02:14:51.612Z,20.40
2018-07-05T02:17:32.389Z,20.40
2018-07-05T02:22:51.474Z,20.30
2018-07-05T02:25:32.499Z,20.30
2018-07-05T02:28:16.411Z,20.30
2018-07-05T02:30:56.500Z,20.40
2018-07-05T02:33:38.997Z,20.40
2018-07-05T02:36:19.994Z,20.40
2018-07-05T02:39:05.364Z,20.40
2018-07-05T02:41:45.396Z,20.40
2018-07-05T02:44:28.105Z,20.40
2018-07-05T02:47:10.404Z,20.40
2018-07-05T02:49:53.825Z,20.50
2018-07-05T02:52:34.929Z,20.50
2018-07-05T02:55:15.762Z,20.40
2018-07-05T02:58:00.936Z,20.40
2018-07-05T03:00:47.264Z,20.40
2018-07-05T03:03:30.774Z,20.40
2018-07-05T03:06:16.437Z,20.30
2018-07-05T03:08:59.758Z,20.30
2018-07-05T03:11:44.971Z,20.30
2018-07-05T03:14:28.173Z,20.30
2018-07-05T03:17:09.057Z,20.20
2018-07-05T03:19:49.952Z,20.20
2018-07-05T03:22:35.429Z,20.20
2018-07-05T03:25:15.902Z,20.20
2018-07-05T03:28:01.741Z,20.20
2018-07-05T03:30:43.203Z,20.20
2018-07-05T03:33:25.191Z,20.10
2018-07-05T03:36:07.324Z,20.10
2018-07-05T03:38:47.425Z,20.10
2018-07-05T03:44:08.445Z,20.20
2018-07-05T03:46:50.560Z,20.20
2018-07-05T03:49:31.934Z,20.20
2018-07-05T03:52:15.576Z,20.30
2018-07-05T03:54:59.656Z,20.30
2018-07-05T03:57:42.092Z,20.40
2018-07-05T04:00:26.686Z,20.40
2018-07-05T04:03:07.441Z,20.60
2018-07-05T04:05:53.740Z,20.70
2018-07-05T04:08:35.762Z,20.90
2018-07-05T04:11:15.629Z,21.00
2018-07-05T04:14:01.793Z,21.20
2018-07-05T04:16:45.384Z,21.30
2018-07-05T04:19:25.723Z,21.30
2018-07-05T04:22:09.661Z,21.30
2018-07-05T04:24:50.661Z,21.40
2018-07-05T04:27:33.594Z,21.30
2018-07-05T04:30:14.069Z,21.30
2018-07-05T04:33:00.575Z,21.20
2018-07-05T04:35:42.606Z,20.90
2018-07-05T04:38:27.574Z,20.70
2018-07-05T04:41:09.367Z,20.50
2018-07-05T04:43:52.035Z,20.40
2018-07-05T04:46:33.473Z,20.20
2018-07-05T04:49:13.281Z,20.00
2018-07-05T04:51:53.528Z,19.80
2018-07-05T04:54:34.757Z,19.70
2018-07-05T04:57:17.043Z,19.60
2018-07-05T04:59:57.806Z,19.60
2018-07-05T05:02:41.695Z,19.60
2018-07-05T05:05:26.484Z,19.40
2018-07-05T05:08:07.648Z,19.30
2018-07-05T05:10:48.561Z,19.30
2018-07-05T05:13:31.481Z,19.20
2018-07-05T05:16:14.948Z,19.20
2018-07-05T05:18:58.766Z,19.10
2018-07-05T05:21:40.547Z,19.00
2018-07-05T05:24:22.519Z,19.00
2018-07-05T05:27:06.185Z,19.00
2018-07-05T05:29:53.439Z,19.00
2018-07-05T05:32:33.749Z,19.00
2018-07-05T05:35:15.756Z,18.90
2018-07-05T05:37:57.165Z,18.90
2018-07-05T05:40:39.552Z,18.90
2018-07-05T05:43:20.933Z,18.90
2018-07-05T05:46:04.125Z,19.10
2018-07-05T05:48:50.301Z,19.30
2018-07-05T05:51:32.997Z,19.40
2018-07-05T05:54:15.944Z,19.50
2018-07-05T05:56:55.794Z,19.60
2018-07-05T05:59:35.603Z,19.80
2018-07-05T06:02:15.312Z,20.00
2018-07-05T06:04:55.087Z,20.30
2018-07-05T06:07:34.785Z,20.60
2018-07-05T06:10:14.649Z,20.90
2018-07-05T06:12:54.239Z,21.30
2018-07-05T06:15:33.963Z,21.70
2018-07-05T06:18:13.743Z,22.30
2018-07-05T06:20:53.522Z,22.80
2018-07-05T06:23:33.576Z,23.30
2018-07-05T06:26:13.406Z,23.70
2018-07-05T06:28:53.062Z,24.10
2018-07-05T06:31:33.021Z,24.50
2018-07-05T06:34:13.002Z,25.00
2018-07-05T06:36:52.795Z,25.80
2018-07-05T06:39:32.832Z,26.90
2018-07-05T06:42:12.713Z,27.80
2018-07-05T06:44:52.418Z,28.30
2018-07-05T06:47:32.261Z,28.60
2018-07-05T06:50:12.121Z,28.60
2018-07-05T06:52:51.849Z,29.00
2018-07-05T06:55:31.989Z,29.30
2018-07-05T06:58:11.593Z,29.30
2018-07-05T07:00:51.224Z,29.00
2018-07-05T07:03:30.894Z,28.70
2018-07-05T07:06:10.601Z,28.40
2018-07-05T07:08:50.177Z,28.20
2018-07-05T07:11:29.897Z,27.90
2018-07-05T07:14:09.552Z,27.80
2018-07-05T07:16:49.327Z,27.70
2018-07-05T07:19:28.970Z,27.70
2018-07-05T07:22:08.707Z,27.60
2018-07-05T07:24:48.411Z,27.50
2018-07-05T07:27:28.065Z,27.40
2018-07-05T07:30:07.794Z,27.20
2018-07-05T07:32:47.463Z,27.10
2018-07-05T07:35:27.161Z,27.00
2018-07-05T07:38:06.809Z,26.80
2018-07-05T07:40:46.498Z,26.70
2018-07-05T07:43:13.873Z,26.80
2018-07-05T07:45:41.200Z,26.80
2018-07-05T07:48:08.485Z,26.90
2018-07-05T07:50:35.885Z,27.00
2018-07-05T07:53:03.216Z,26.90
2018-07-05T07:55:30.522Z,26.80
2018-07-05T07:57:57.866Z,26.70
2018-07-05T08:00:25.261Z,26.70
2018-07-05T08:02:52.640Z,26.80
2018-07-05T08:05:20.026Z,26.80
2018-07-05T08:07:47.358Z,26.80
2018-07-05T08:10:14.724Z,26.80
2018-07-05T08:12:42.044Z,27.00
2018-07-05T08:15:09.455Z,27.00
2018-07-05T08:17:36.761Z,27.00
2018-07-05T08:20:04.067Z,27.00
2018-07-05T08:22:31.389Z,27.00
2018-07-05T08:24:58.748Z,27.00
2018-07-05T08:27:26.098Z,27.10
2018-07-05T08:29:53.404Z,27.20
2018-07-05T08:32:20.710Z,27.30
2018-07-05T08:34:48.131Z,27.50
2018-07-05T08:37:15.507Z,27.70
2018-07-05T08:39:42.927Z,28.10
2018-07-05T08:42:10.270Z,28.50
2018-07-05T08:44:37.613Z,28.80
2018-07-05T08:47:04.914Z,29.30
2018-07-05T08:49:32.264Z,29.70
2018-07-05T08:51:59.654Z,30.10
2018-07-05T08:54:26.970Z,30.80
2018-07-05T08:56:54.293Z,31.40
2018-07-05T08:59:21.618Z,31.30
2018-07-05T09:01:48.940Z,31.30
2018-07-05T09:04:16.286Z,31.20
2018-07-05T09:06:43.585Z,31.40
2018-07-05T09:09:10.958Z,31.30
2018-07-05T09:11:38.387Z,31.40
2018-07-05T09:14:05.697Z,31.50
2018-07-05T09:16:33.081Z,31.30
2018-07-05T09:19:00.369Z,31.30
2018-07-05T09:23:55.377Z,31.10
2018-07-05T09:26:22.991Z,30.60
2018-07-05T09:28:50.604Z,30.40
2018-07-05T09:31:17.924Z,30.00
2018-07-05T09:33:45.873Z,30.00
2018-07-05T09:36:13.304Z,29.80
2018-07-05T09:38:40.799Z,29.60
2018-07-05T09:41:08.178Z,29.20
2018-07-05T09:43:36.008Z,28.50
2018-07-05T09:46:03.594Z,28.00
2018-07-05T09:48:31.097Z,27.50
2018-07-05T09:50:58.529Z,26.90
2018-07-05T09:53:26.293Z,26.50
2018-07-05T09:55:53.795Z,26.10
2018-07-05T09:58:21.442Z,25.90
2018-07-05T10:00:48.938Z,25.70
2018-07-05T10:03:17.020Z,25.40
2018-07-05T10:05:44.701Z,25.20
2018-07-05T10:08:12.417Z,25.10
2018-07-05T10:10:39.966Z,25.00
2018-07-05T10:13:07.475Z,24.90
2018-07-05T10:15:34.859Z,25.00
2018-07-05T10:18:02.561Z,25.10
2018-07-05T10:20:30.036Z,25.30
2018-07-05T10:22:57.352Z,25.60
2018-07-05T10:25:24.817Z,26.00
2018-07-05T10:27:52.149Z,26.50
2018-07-05T10:30:31.987Z,27.40
2018-07-05T10:33:11.792Z,28.70
2018-07-05T10:35:39.216Z,29.90
2018-07-05T10:38:06.757Z,30.80
2018-07-05T10:40:46.472Z,31.60
2018-07-05T10:43:26.250Z,32.20
2018-07-05T10:46:06.251Z,32.70
2018-07-05T10:48:46.321Z,33.20
2018-07-05T10:51:26.376Z,33.50
2018-07-05T10:54:06.219Z,33.90
2018-07-05T10:56:46.137Z,34.20
2018-07-05T10:59:25.928Z,34.60
2018-07-05T11:02:06.117Z,35.00
2018-07-05T11:04:46.025Z,35.00
2018-07-05T11:07:25.930Z,35.00
2018-07-05T11:10:05.911Z,35.00
2018-07-05T11:12:45.775Z,34.70
2018-07-05T11:15:25.760Z,34.50
2018-07-05T11:18:05.809Z,34.30
2018-07-05T11:20:46.317Z,33.90
2018-07-05T11:23:26.326Z,33.80
2018-07-05T11:26:06.450Z,33.50
2018-07-05T11:28:46.257Z,33.30
2018-07-05T11:31:26.015Z,33.30
2018-07-05T11:34:06.090Z,33.10
2018-07-05T11:36:45.915Z,33.00
2018-07-05T11:39:26.204Z,33.00
2018-07-05T11:42:05.980Z,32.80
2018-07-05T11:44:46.172Z,32.80
2018-07-05T11:47:25.994Z,32.90
2018-07-05T11:50:06.276Z,32.60
2018-07-05T11:52:46.131Z,32.50
2018-07-05T11:55:25.981Z,32.70
2018-07-05T11:58:05.804Z,33.00
2018-07-05T12:00:45.491Z,33.30
2018-07-05T12:03:25.302Z,33.40
2018-07-05T12:06:05.152Z,33.40
2018-07-05T12:08:44.892Z,33.50
2018-07-05T12:11:24.702Z,33.50
2018-07-05T12:14:04.508Z,33.30
2018-07-05T12:16:44.421Z,33.10
2018-07-05T12:19:24.506Z,32.90
2018-07-05T12:22:04.445Z,33.00
2018-07-05T12:24:44.030Z,33.00
2018-07-05T12:27:24.180Z,32.90
2018-07-05T12:30:03.995Z,32.70
2018-07-05T12:32:43.858Z,32.70
2018-07-05T12:35:23.613Z,32.80
2018-07-05T12:38:03.667Z,32.90
2018-07-05T12:40:43.636Z,32.60
2018-07-05T12:43:23.670Z,32.60
2018-07-05T12:46:03.465Z,32.60
2018-07-05T12:48:43.347Z,32.60
2018-07-05T12:51:23.458Z,32.50
2018-07-05T12:54:03.448Z,32.40
2018-07-05T12:56:43.898Z,32.40
2018-07-05T12:59:23.917Z,32.40
2018-07-05T13:02:03.949Z,32.30
2018-07-05T13:04:44.212Z,32.40
2018-07-05T13:07:24.629Z,32.50
2018-07-05T13:12:39.193Z,32.40
2018-07-05T13:15:19.623Z,32.50
2018-07-05T13:18:00.105Z,32.50
2018-07-05T13:20:40.012Z,32.50
2018-07-05T13:23:20.434Z,32.30
2018-07-05T13:26:00.578Z,32.20
2018-07-05T13:28:40.807Z,32.40
2018-07-05T13:31:20.877Z,32.20
2018-07-05T13:34:01.147Z,32.20
2018-07-05T13:36:41.312Z,32.50
2018-07-05T13:39:21.501Z,32.10
2018-07-05T13:42:02.182Z,32.00
2018-07-05T13:44:42.154Z,31.80
2018-07-05T13:47:22.260Z,31.80
2018-07-05T13:50:02.499Z,31.90
2018-07-05T13:52:42.693Z,31.90
2018-07-05T13:55:22.701Z,31.90
2018-07-05T13:58:02.937Z,32.00
2018-07-05T14:00:43.234Z,32.00
2018-07-05T14:03:23.598Z,31.80
2018-07-05T14:06:03.505Z,31.70
2018-07-05T14:08:43.684Z,31.80
2018-07-05T14:11:26.204Z,31.90
2018-07-05T14:14:06.997Z,32.00
2018-07-05T14:16:47.532Z,31.90
2018-07-05T14:19:27.584Z,32.00
2018-07-05T14:22:07.410Z,32.20
2018-07-05T14:24:47.513Z,32.10
2018-07-05T14:27:27.072Z,32.20
2018-07-05T14:30:06.668Z,32.40
2018-07-05T14:32:46.634Z,32.20
2018-07-05T14:35:26.985Z,32.40
2018-07-05T14:38:06.714Z,32.40
2018-07-05T14:40:46.699Z,32.50
2018-07-05T14:43:26.619Z,32.60
2018-07-05T14:46:06.584Z,32.40
2018-07-05T14:48:46.189Z,32.30
2018-07-05T14:51:25.939Z,32.10
2018-07-05T14:54:05.725Z,32.10
2018-07-05T14:56:45.481Z,32.10
2018-07-05T14:59:25.161Z,32.10
2018-07-05T15:02:05.200Z,32.10
2018-07-05T15:04:45.024Z,32.10
2018-07-05T15:07:24.904Z,32.10
2018-07-05T15:10:04.750Z,31.90
2018-07-05T15:12:44.654Z,32.00
2018-07-05T15:15:24.349Z,32.00
2018-07-05T15:18:04.599Z,32.00
2018-07-05T15:20:44.326Z,31.90
2018-07-05T15:23:23.980Z,31.70
2018-07-05T15:26:03.644Z,31.70
2018-07-05T15:28:43.458Z,31.60
2018-07-05T15:31:23.145Z,31.60
2018-07-05T15:34:02.836Z,31.50
2018-07-05T15:36:42.609Z,31.20
2018-07-05T15:39:22.398Z,31.30
2018-07-05T15:42:02.045Z,31.30
2018-07-05T15:44:41.837Z,31.20
2018-07-05T15:47:21.526Z,31.10
2018-07-05T15:50:01.429Z,31.20
2018-07-05T15:52:41.107Z,31.10
2018-07-05T15:55:21.154Z,31.00
2018-07-05T15:58:00.912Z,31.30
2018-07-05T16:00:40.827Z,31.40
2018-07-05T16:03:20.514Z,31.50
2018-07-05T16:06:00.387Z,31.30
2018-07-05T16:08:40.115Z,31.40
2018-07-05T16:11:19.957Z,31.40
2018-07-05T16:13:59.607Z,31.30
2018-07-05T16:16:39.489Z,31.20
2018-07-05T16:19:19.310Z,31.00
2018-07-05T16:21:58.992Z,30.90
2018-07-05T16:24:38.696Z,30.80
2018-07-05T16:29:51.985Z,30.40
2018-07-05T16:32:32.138Z,30.30
2018-07-05T16:35:11.950Z,30.10
2018-07-05T16:37:51.602Z,29.70
2018-07-05T16:40:31.379Z,29.60
2018-07-05T16:43:11.114Z,29.50
2018-07-05T16:45:50.955Z,29.50
2018-07-05T16:48:31.017Z,29.50
2018-07-05T16:51:10.984Z,29.50
2018-07-05T16:53:50.940Z,29.40
2018-07-05T16:56:30.506Z,29.40
2018-07-05T16:59:10.358Z,29.20
2018-07-05T17:01:50.199Z,29.20
2018-07-05T17:04:29.941Z,29.10
2018-07-05T17:07:10.007Z,29.00
2018-07-05T17:09:50.107Z,28.90
2018-07-05T17:12:29.837Z,28.80
2018-07-05T17:17:43.428Z,28.80
2018-07-05T17:20:23.598Z,28.90
2018-07-05T17:23:03.370Z,28.90
2018-07-05T17:25:43.446Z,28.80
2018-07-05T17:28:23.488Z,28.80
2018-07-05T17:31:03.375Z,28.80
2018-07-05T17:33:43.233Z,28.70
2018-07-05T17:36:23.004Z,28.80
2018-07-05T17:39:03.344Z,28.80
2018-07-05T17:41:43.188Z,28.70
2018-07-05T17:44:22.841Z,28.70
2018-07-05T17:47:02.609Z,28.60
2018-07-05T17:49:42.810Z,28.60
2018-07-05T17:52:22.905Z,28.60
2018-07-05T17:55:02.760Z,28.50
2018-07-05T17:57:43.512Z,28.30
2018-07-05T18:00:23.338Z,28.10
2018-07-05T18:03:03.000Z,28.00
2018-07-05T18:05:42.823Z,28.10
2018-07-05T18:08:22.751Z,28.10
2018-07-05T18:11:02.584Z,28.00
2018-07-05T18:13:42.411Z,28.00
2018-07-05T18:16:22.140Z,27.90
2018-07-05T18:19:01.926Z,27.80
2018-07-05T18:21:41.965Z,27.70
2018-07-05T18:24:21.930Z,27.70
2018-07-05T18:27:01.725Z,27.60
2018-07-05T18:29:41.691Z,27.50
2018-07-05T18:32:22.065Z,27.40
2018-07-05T18:35:02.101Z,27.30
2018-07-05T18:37:41.936Z,27.10
2018-07-05T18:40:21.823Z,27.10
2018-07-05T18:43:01.949Z,27.00
2018-07-05T18:48:15.533Z,26.80
2018-07-05T18:50:55.512Z,26.80
2018-07-05T18:53:35.287Z,26.70
2018-07-05T18:56:15.089Z,26.60
2018-07-05T18:58:54.701Z,26.40
2018-07-05T19:01:34.364Z,26.30
2018-07-05T19:04:14.145Z,26.30
2018-07-05T19:06:54.995Z,26.20
2018-07-05T19:09:34.847Z,26.10
2018-07-05T19:12:15.495Z,26.00
2018-07-05T19:14:55.454Z,25.90
2018-07-05T19:17:35.119Z,25.80
2018-07-05T19:20:15.059Z,25.70
2018-07-05T19:22:54.753Z,25.60
2018-07-05T19:25:35.045Z,25.50
2018-07-05T19:28:14.945Z,25.40
2018-07-05T19:30:54.767Z,25.30
2018-07-05T19:33:34.624Z,25.20
2018-07-05T19:36:14.421Z,25.10
2018-07-05T19:38:54.206Z,25.00
2018-07-05T19:41:34.139Z,24.90
2018-07-05T19:44:13.863Z,24.80
2018-07-05T19:46:53.728Z,24.70
2018-07-05T19:49:33.644Z,24.60
2018-07-05T19:52:13.383Z,24.50
2018-07-05T19:54:53.660Z,24.40
2018-07-05T19:57:33.420Z,24.40
2018-07-05T20:00:13.197Z,24.30
2018-07-05T20:02:52.788Z,24.20
2018-07-05T20:05:32.644Z,24.10
2018-07-05T20:08:12.231Z,24.10
2018-07-05T20:10:58.052Z,24.00
2018-07-05T20:13:38.457Z,23.90
2018-07-05T20:18:51.989Z,23.80
2018-07-05T20:21:31.824Z,23.70
2018-07-05T20:24:11.510Z,23.70
2018-07-05T20:26:51.335Z,23.60
2018-07-05T20:29:31.186Z,23.50
2018-07-05T20:32:11.427Z,23.50
2018-07-05T20:37:24.683Z,23.30
2018-07-05T20:40:04.351Z,23.30
2018-07-05T20:42:44.009Z,23.20
2018-07-05T20:45:23.756Z,23.10
2018-07-05T20:48:03.598Z,23.00
2018-07-05T20:50:43.669Z,22.90
2018-07-05T20:53:23.509Z,22.80
2018-07-05T20:56:03.253Z,22.80
2018-07-05T20:58:42.940Z,22.70
2018-07-05T21:01:22.758Z,22.60
2018-07-05T21:04:02.589Z,22.50
2018-07-05T21:06:42.739Z,22.50
2018-07-05T21:09:22.729Z,22.40
2018-07-05T21:12:02.690Z,22.30
2018-07-05T21:14:42.610Z,22.20
2018-07-05T21:17:22.445Z,22.10
2018-07-05T21:20:02.444Z,22.10
2018-07-05T21:22:42.185Z,22.00
2018-07-05T21:25:22.225Z,21.90
2018-07-05T21:28:01.972Z,21.90
2018-07-05T21:30:41.786Z,21.80
2018-07-05T21:33:21.540Z,21.80
2018-07-05T21:36:01.377Z,21.70
2018-07-05T21:38:41.098Z,21.70
2018-07-05T21:41:20.802Z,21.60
2018-07-05T21:44:00.638Z,21.60
2018-07-05T21:46:40.375Z,21.50
2018-07-05T21:49:20.097Z,21.50
2018-07-05T21:52:00.166Z,21.50
2018-07-05T21:57:13.442Z,21.30
2018-07-05T21:59:53.174Z,21.30
2018-07-05T22:02:33.065Z,21.20
2018-07-05T22:05:13.269Z,21.20
2018-07-05T22:07:54.524Z,21.10
2018-07-05T22:10:34.319Z,21.10
2018-07-05T22:13:13.953Z,21.00
2018-07-05T22:15:53.781Z,21.00
2018-07-05T22:18:38.833Z,20.90
2018-07-05T22:21:19.328Z,20.90
2018-07-05T22:24:04.387Z,20.80
2018-07-05T22:26:46.260Z,20.80
2018-07-05T22:29:31.478Z,20.70
2018-07-05T22:32:11.454Z,20.70
2018-07-05T22:34:51.294Z,20.60
2018-07-05T22:37:30.996Z,20.60
2018-07-05T22:40:10.705Z,20.50
2018-07-05T22:42:50.514Z,20.50
2018-07-05T22:45:30.270Z,20.40
2018-07-05T22:48:10.033Z,20.40
2018-07-05T22:50:49.899Z,20.30
2018-07-05T22:53:30.004Z,20.30
2018-07-05T22:56:09.721Z,20.30
2018-07-05T22:58:49.476Z,20.20
2018-07-05T23:01:29.236Z,20.10
2018-07-05T23:04:09.023Z,20.10
2018-07-05T23:06:48.744Z,20.00
2018-07-05T23:09:28.652Z,20.00
2018-07-05T23:12:08.411Z,20.00
2018-07-05T23:14:48.230Z,20.00
2018-07-05T23:17:28.096Z,19.90
2018-07-05T23:20:07.737Z,19.90
2018-07-05T23:22:47.353Z,19.80
2018-07-05T23:25:27.013Z,19.80
2018-07-05T23:28:06.672Z,19.70
2018-07-05T23:30:46.301Z,19.70
2018-07-05T23:33:25.958Z,19.60
2018-07-05T23:36:05.771Z,19.60
2018-07-05T23:38:45.708Z,19.50
2018-07-05T23:41:25.705Z,19.50
2018-07-05T23:46:39.275Z,19.30
2018-07-05T23:49:18.946Z,19.30
2018-07-05T23:51:58.667Z,19.20
2018-07-05T23:54:38.455Z,19.20
2018-07-05T23:57:18.185Z,19.10
2018-07-05T23:59:58.191Z,19.10
